aviador You're here:

CYQB Decoded Metar

QUEBEC in QC, CANADA
Report Time2017-04-25 20:00:00
UTC Time2017-04-25 20:13:55
Flight Rules vfr VFR
Wind070° at 16 Gusting to 21 kt
W.Decomp.*RWY 06: 14.3 kt HW 7.3 kt RCW
RWY 12: 13.4 kt HW 8.7 kt LCW
W.Rank070° ranks 4
Current wind is above 070° avg. (9.7)
Visibility9999 m
Phenomena:N/A
Clouds:Few 090 Hf
Scattered 160 Hf
Broken 210 Hf
Expected CloudBase > 4,800 ft AGL from Temp-Dew spread
Ceiling21,000 ft
Temp09°C (ISA -6)
Dew Point-3°C (43% RH)
AAT0.9°C
QNH1024 hPa
Density Alt-722 ft
Elevation240 ft
Report Wrong Elevation
Raw Report
CYQB 252000Z 07016G21KT 30SM FEW090 SCT160 BKN210 09/M03 A3024 RMK
AC2AC1CI4 SLP245=

Extra information for CYQB:More info

Metar Taf Metar & Taf Last 4 Metars F.Rules Stats Wind Profile Meteogram Temp Stats Airport Information Weather charts Add Link Nearby VenuesMetar ALERT Operation Metar Decoded Social comments

navcanada